Time,TemperatureF,DewpointF,PressureIn,WindDirection,WindDirectionDegrees,WindSpeedMPH,WindSpeedGustMPH,Humidity,HourlyPrecipIn,Conditions,Clouds,dailyrainin,SoftwareType,DateUTC
2013-01-28 00:00:00,36.7,29.2,30.40,ESE,112,0.0,0.0,74,0.00,,CLR,0.00,VWS V12.08,2013-01-28 05:00:00,
2013-01-28 00:01:00,36.7,29.2,30.40,ESE,112,0.0,0.0,74,0.00,,CLR,0.00,VWS V12.08,2013-01-28 05:01:00,
2013-01-28 00:03:00,36.7,29.2,30.40,ESE,112,0.0,0.0,74,0.00,,CLR,0.00,VWS V12.08,2013-01-28 05:03:00,
2013-01-28 00:04:00,36.5,29.0,30.40,ESE,112,0.0,0.0,74,0.00,,CLR,0.00,VWS V12.08,2013-01-28 05:04:00,
2013-01-28 00:09:00,36.5,29.0,30.39,ESE,112,0.0,0.0,74,0.00,,CLR,0.00,VWS V12.08,2013-01-28 05:09:00,
2013-01-28 00:14:00,36.5,29.0,30.39,ESE,112,0.0,0.0,74,0.00,,CLR,0.00,VWS V12.08,2013-01-28 05:14:00,
2013-01-28 00:19:00,36.5,29.3,30.39,ESE,112,0.0,0.0,75,0.00,,CLR,0.00,VWS V12.08,2013-01-28 05:19:00,
2013-01-28 00:24:00,36.5,29.3,30.39,ESE,112,0.0,0.0,75,0.00,,CLR,0.00,VWS V12.08,2013-01-28 05:24:00,
2013-01-28 00:29:00,36.5,29.7,30.39,ESE,112,0.0,0.0,76,0.00,,CLR,0.00,VWS V12.08,2013-01-28 05:29:00,
2013-01-28 00:34:00,36.3,29.5,30.39,ESE,112,0.0,0.0,76,0.00,,CLR,0.00,VWS V12.08,2013-01-28 05:34:00,
2013-01-28 00:39:00,36.3,29.5,30.39,ESE,112,0.0,0.0,76,0.00,,CLR,0.00,VWS V12.08,2013-01-28 05:39:00,
2013-01-28 00:44:00,36.3,29.8,30.40,ESE,112,0.0,0.0,77,0.00,,CLR,0.00,VWS V12.08,2013-01-28 05:44:00,
2013-01-28 00:49:00,36.3,29.8,30.40,ESE,112,0.0,0.0,77,0.00,,CLR,0.00,VWS V12.08,2013-01-28 05:49:00,
2013-01-28 00:54:00,36.3,29.8,30.40,ESE,112,0.0,0.0,77,0.00,,CLR,0.00,VWS V12.08,2013-01-28 05:54:00,
2013-01-28 00:59:00,36.3,29.8,30.40,ESE,112,0.0,0.0,77,0.00,,CLR,0.00,VWS V12.08,2013-01-28 05:59:00,
2013-01-28 01:04:00,36.3,30.1,30.40,ESE,112,0.0,0.0,78,0.00,,CLR,0.00,VWS V12.08,2013-01-28 06:04:00,
2013-01-28 01:09:00,36.3,30.1,30.40,ESE,112,0.0,0.0,78,0.00,,CLR,0.00,VWS V12.08,2013-01-28 06:09:00,
2013-01-28 01:14:00,36.3,30.1,30.39,SSW,202,0.0,0.0,78,0.00,,CLR,0.00,VWS V12.08,2013-01-28 06:14:00,
2013-01-28 01:19:00,36.3,30.1,30.40,SSW,202,0.0,0.0,78,0.00,,CLR,0.00,VWS V12.08,2013-01-28 06:19:00,
2013-01-28 01:24:00,36.3,30.1,30.40,SSW,202,0.0,0.0,78,0.00,,CLR,0.00,VWS V12.08,2013-01-28 06:24:00,
2013-01-28 01:29:00,36.3,30.1,30.40,SSW,202,0.0,0.0,78,0.00,,CLR,0.00,VWS V12.08,2013-01-28 06:29:00,
2013-01-28 01:34:00,36.3,30.4,30.40,SSW,202,0.0,0.0,79,0.00,,CLR,0.00,VWS V12.08,2013-01-28 06:34:00,
2013-01-28 01:39:00,36.3,30.4,30.40,SSW,202,0.0,0.0,79,0.00,,CLR,0.00,VWS V12.08,2013-01-28 06:39:00,
2013-01-28 01:44:00,36.3,30.4,30.40,SE,135,0.0,0.0,79,0.00,,CLR,0.00,VWS V12.08,2013-01-28 06:44:00,
2013-01-28 01:49:00,36.3,30.4,30.40,SE,135,0.0,0.0,79,0.00,,CLR,0.00,VWS V12.08,2013-01-28 06:49:00,
2013-01-28 01:54:00,36.3,30.4,30.40,SE,135,0.0,0.0,79,0.00,,CLR,0.00,VWS V12.08,2013-01-28 06:54:00,
2013-01-28 01:59:00,36.3,30.4,30.39,SE,135,0.0,0.0,79,0.00,,CLR,0.00,VWS V12.08,2013-01-28 06:59:00,
2013-01-28 02:04:00,36.3,30.4,30.39,SE,135,0.0,0.0,79,0.00,,CLR,0.00,VWS V12.08,2013-01-28 07:04:00,
2013-01-28 02:09:00,36.3,30.4,30.39,SE,135,0.0,0.0,79,0.00,,CLR,0.00,VWS V12.08,2013-01-28 07:09:00,
2013-01-28 02:14:00,36.5,30.6,30.38,SE,135,0.0,0.0,79,0.00,,CLR,0.00,VWS V12.08,2013-01-28 07:14:00,
2013-01-28 02:19:00,36.3,30.4,30.38,East,90,0.0,0.0,79,0.00,,CLR,0.00,VWS V12.08,2013-01-28 07:19:00,
2013-01-28 02:24:00,36.3,30.4,30.38,East,90,0.0,0.0,79,0.00,,CLR,0.00,VWS V12.08,2013-01-28 07:24:00,
2013-01-28 02:29:00,36.3,30.4,30.38,East,90,0.0,0.0,79,0.00,,CLR,0.00,VWS V12.08,2013-01-28 07:29:00,
2013-01-28 02:34:00,36.3,30.4,30.37,East,90,0.0,0.0,79,0.00,,CLR,0.00,VWS V12.08,2013-01-28 07:34:00,
2013-01-28 02:39:00,36.3,30.4,30.37,East,90,0.0,0.0,79,0.00,,CLR,0.00,VWS V12.08,2013-01-28 07:39:00,
2013-01-28 02:44:00,36.1,30.3,30.37,East,90,0.0,0.0,79,0.00,,CLR,0.00,VWS V12.08,2013-01-28 07:44:00,
2013-01-28 02:49:00,36.3,30.4,30.37,East,90,0.0,0.0,79,0.00,,CLR,0.00,VWS V12.08,2013-01-28 07:49:00,
2013-01-28 02:54:00,36.1,30.3,30.38,East,90,0.0,0.0,79,0.00,,CLR,0.00,VWS V12.08,2013-01-28 07:54:00,
2013-01-28 02:59:00,36.1,30.3,30.38,East,90,0.0,0.0,79,0.00,,CLR,0.00,VWS V12.08,2013-01-28 07:59:00,
2013-01-28 03:04:00,36.0,30.1,30.38,ENE,68,0.0,0.0,79,0.00,,CLR,0.00,VWS V12.08,2013-01-28 08:04:00,
2013-01-28 03:09:00,36.0,30.1,30.38,ENE,68,0.0,0.0,79,0.00,,CLR,0.00,VWS V12.08,2013-01-28 08:09:00,
2013-01-28 03:14:00,36.1,30.3,30.37,ENE,68,0.0,0.0,79,0.00,,CLR,0.00,VWS V12.08,2013-01-28 08:14:00,
2013-01-28 03:19:00,36.1,30.3,30.38,ENE,68,0.0,0.0,79,0.00,,CLR,0.00,VWS V12.08,2013-01-28 08:19:00,
2013-01-28 03:24:00,36.1,30.3,30.38,ENE,68,0.0,0.0,79,0.00,,CLR,0.00,VWS V12.08,2013-01-28 08:24:00,
2013-01-28 03:29:00,36.0,30.1,30.38,ENE,68,0.0,0.0,79,0.00,,CLR,0.00,VWS V12.08,2013-01-28 08:29:00,
2013-01-28 03:34:00,36.0,30.1,30.38,ENE,68,0.0,0.0,79,0.00,,CLR,0.00,VWS V12.08,2013-01-28 08:34:00,
2013-01-28 03:39:00,36.0,30.1,30.38,ENE,68,0.0,0.0,79,0.00,,CLR,0.00,VWS V12.08,2013-01-28 08:39:00,
2013-01-28 03:44:00,36.0,30.1,30.38,ENE,68,0.0,0.0,79,0.00,,CLR,0.00,VWS V12.08,2013-01-28 08:44:00,
2013-01-28 03:49:00,35.8,29.9,30.38,ENE,68,0.0,0.0,79,0.00,,CLR,0.00,VWS V12.08,2013-01-28 08:49:00,
2013-01-28 03:54:00,35.8,29.9,30.38,ENE,68,0.0,0.0,79,0.00,,CLR,0.00,VWS V12.08,2013-01-28 08:54:00,
2013-01-28 03:59:00,35.8,29.9,30.38,ENE,68,0.0,0.0,79,0.00,,CLR,0.00,VWS V12.08,2013-01-28 08:59:00,
2013-01-28 04:04:00,35.8,29.9,30.38,ENE,68,0.0,0.0,79,0.00,,CLR,0.00,VWS V12.08,2013-01-28 09:04:00,
2013-01-28 04:09:00,35.8,29.9,30.37,ENE,68,0.0,0.0,79,0.00,,CLR,0.00,VWS V12.08,2013-01-28 09:09:00,
2013-01-28 04:14:00,35.8,29.9,30.38,ENE,68,0.0,0.0,79,0.00,,CLR,0.00,VWS V12.08,2013-01-28 09:14:00,
2013-01-28 04:19:00,35.8,29.9,30.37,ENE,68,0.0,0.0,79,0.00,,CLR,0.00,VWS V12.08,2013-01-28 09:19:00,
2013-01-28 04:24:00,35.8,29.9,30.38,ENE,68,0.0,0.0,79,0.00,,CLR,0.00,VWS V12.08,2013-01-28 09:24:00,
2013-01-28 04:29:00,35.8,29.9,30.37,ENE,68,0.0,0.0,79,0.00,,CLR,0.00,VWS V12.08,2013-01-28 09:29:00,
2013-01-28 04:34:00,35.8,29.9,30.37,ENE,68,0.0,0.0,79,0.00,,CLR,0.00,VWS V12.08,2013-01-28 09:34:00,
2013-01-28 04:39:00,35.8,29.9,30.37,ENE,68,0.0,0.0,79,0.00,,CLR,0.00,VWS V12.08,2013-01-28 09:39:00,
2013-01-28 04:44:00,35.8,29.9,30.38,ENE,68,0.0,0.0,79,0.00,,CLR,0.00,VWS V12.08,2013-01-28 09:44:00,
2013-01-28 04:49:00,35.8,29.9,30.37,ENE,68,0.0,0.0,79,0.00,,CLR,0.00,VWS V12.08,2013-01-28 09:49:00,
2013-01-28 04:54:00,35.8,29.9,30.37,ENE,68,0.0,0.0,79,0.00,,CLR,0.00,VWS V12.08,2013-01-28 09:54:00,
2013-01-28 04:59:00,35.8,29.9,30.37,ENE,68,0.0,0.0,79,0.00,,CLR,0.00,VWS V12.08,2013-01-28 09:59:00,
2013-01-28 05:05:00,35.8,29.9,30.37,East,90,0.0,0.0,79,0.00,,CLR,0.00,VWS V12.08,2013-01-28 10:05:00,
2013-01-28 05:10:00,35.8,29.9,30.37,ENE,68,0.0,0.0,79,0.00,,CLR,0.00,VWS V12.08,2013-01-28 10:10:00,
2013-01-28 05:15:00,35.8,29.9,30.36,ENE,68,0.0,0.0,79,0.00,,CLR,0.00,VWS V12.08,2013-01-28 10:15:00,
2013-01-28 05:20:00,35.8,30.2,30.36,ENE,68,0.0,0.0,80,0.00,,CLR,0.00,VWS V12.08,2013-01-28 10:20:00,
2013-01-28 05:25:00,35.8,30.2,30.37,ENE,68,0.0,0.0,80,0.00,,CLR,0.00,VWS V12.08,2013-01-28 10:25:00,
2013-01-28 05:30:00,35.8,29.9,30.37,ENE,68,0.0,0.0,79,0.00,,CLR,0.00,VWS V12.08,2013-01-28 10:30:00,
2013-01-28 05:35:00,35.8,29.9,30.37,ENE,68,0.0,0.0,79,0.00,,CLR,0.00,VWS V12.08,2013-01-28 10:35:00,
2013-01-28 05:40:00,35.8,30.2,30.37,ENE,68,0.0,0.0,80,0.00,,CLR,0.00,VWS V12.08,2013-01-28 10:40:00,
2013-01-28 05:45:00,35.8,30.2,30.38,ENE,68,0.0,0.0,80,0.00,,CLR,0.00,VWS V12.08,2013-01-28 10:45:00,
2013-01-28 05:50:00,35.8,29.9,30.38,ENE,68,0.0,0.0,79,0.00,,CLR,0.00,VWS V12.08,2013-01-28 10:50:00,
2013-01-28 05:55:00,35.8,29.9,30.38,ENE,68,0.0,0.0,79,0.00,,CLR,0.00,VWS V12.08,2013-01-28 10:55:00,
2013-01-28 06:00:00,35.8,29.9,30.37,ENE,68,0.0,0.0,79,0.00,,CLR,0.00,VWS V12.08,2013-01-28 11:00:00,
2013-01-28 06:05:00,35.4,29.6,30.38,ENE,68,0.0,0.0,79,0.00,,CLR,0.00,VWS V12.08,2013-01-28 11:05:00,
2013-01-28 06:10:00,35.4,29.9,30.37,ENE,68,0.0,0.0,80,0.00,,CLR,0.00,VWS V12.08,2013-01-28 11:10:00,
2013-01-28 06:15:00,35.4,29.9,30.38,ENE,68,0.0,0.0,80,0.00,,CLR,0.00,VWS V12.08,2013-01-28 11:15:00,
2013-01-28 06:20:00,35.4,29.9,30.38,ENE,68,0.0,0.0,80,0.00,,CLR,0.00,VWS V12.08,2013-01-28 11:20:00,
2013-01-28 06:25:00,35.4,29.9,30.38,ENE,68,0.0,0.0,80,0.00,,CLR,0.00,VWS V12.08,2013-01-28 11:25:00,
2013-01-28 06:30:00,35.4,29.9,30.37,ENE,68,0.0,0.0,80,0.00,,CLR,0.00,VWS V12.08,2013-01-28 11:30:00,
2013-01-28 06:35:00,35.2,29.7,30.37,ENE,68,0.0,0.0,80,0.00,,CLR,0.00,VWS V12.08,2013-01-28 11:35:00,
2013-01-28 06:40:00,35.2,29.7,30.38,East,90,0.0,0.0,80,0.00,,CLR,0.00,VWS V12.08,2013-01-28 11:40:00,
2013-01-28 06:45:00,34.9,29.4,30.38,East,90,0.0,0.0,80,0.00,,CLR,0.00,VWS V12.08,2013-01-28 11:45:00,
2013-01-28 06:50:00,34.9,29.4,30.38,East,90,0.0,0.0,80,0.00,,CLR,0.00,VWS V12.08,2013-01-28 11:50:00,
2013-01-28 06:55:00,34.9,29.4,30.38,East,90,0.0,0.0,80,0.00,,CLR,0.00,VWS V12.08,2013-01-28 11:55:00,
2013-01-28 07:00:00,34.9,29.4,30.38,East,90,0.0,0.0,80,0.00,,CLR,0.00,VWS V12.08,2013-01-28 12:00:00,
2013-01-28 07:05:00,34.9,29.4,30.38,East,90,0.0,0.0,80,0.00,,CLR,0.00,VWS V12.08,2013-01-28 12:05:00,
2013-01-28 07:10:00,35.2,29.7,30.38,East,90,0.0,0.0,80,0.00,,CLR,0.00,VWS V12.08,2013-01-28 12:10:00,
2013-01-28 07:15:00,35.2,29.7,30.37,East,90,0.0,0.0,80,0.00,,CLR,0.00,VWS V12.08,2013-01-28 12:15:00,
2013-01-28 07:20:00,34.9,29.4,30.38,East,90,0.0,0.0,80,0.00,,CLR,0.00,VWS V12.08,2013-01-28 12:20:00,
2013-01-28 07:25:00,34.9,29.4,30.38,East,90,0.0,0.0,80,0.00,,CLR,0.00,VWS V12.08,2013-01-28 12:25:00,
2013-01-28 07:30:00,34.9,29.4,30.37,East,90,0.0,0.0,80,0.00,,CLR,0.00,VWS V12.08,2013-01-28 12:30:00,
2013-01-28 07:35:00,34.7,29.2,30.38,East,90,0.0,0.0,80,0.00,,CLR,0.00,VWS V12.08,2013-01-28 12:35:00,
2013-01-28 07:40:00,34.3,28.8,30.38,East,90,0.0,0.0,80,0.00,,CLR,0.00,VWS V12.08,2013-01-28 12:40:00,
2013-01-28 07:45:00,34.3,28.8,30.38,East,90,0.0,0.0,80,0.00,,CLR,0.00,VWS V12.08,2013-01-28 12:45:00,
2013-01-28 07:50:00,34.3,28.8,30.37,East,90,0.0,0.0,80,0.00,,CLR,0.00,VWS V12.08,2013-01-28 12:50:00,
2013-01-28 07:55:00,34.3,28.8,30.38,East,90,0.0,0.0,80,0.00,,CLR,0.00,VWS V12.08,2013-01-28 12:55:00,
2013-01-28 08:00:00,34.3,28.8,30.38,East,90,0.0,0.0,80,0.00,,CLR,0.00,VWS V12.08,2013-01-28 13:00:00,
2013-01-28 08:05:00,34.3,28.8,30.37,East,90,0.0,0.0,80,0.00,,CLR,0.00,VWS V12.08,2013-01-28 13:05:00,
2013-01-28 08:10:00,34.3,28.8,30.37,East,90,0.0,0.0,80,0.00,,CLR,0.00,VWS V12.08,2013-01-28 13:10:00,
2013-01-28 08:15:00,34.3,29.1,30.37,East,90,0.0,0.0,81,0.00,,CLR,0.00,VWS V12.08,2013-01-28 13:15:00,
2013-01-28 08:20:00,34.3,28.8,30.37,East,90,0.0,0.0,80,0.00,,CLR,0.00,VWS V12.08,2013-01-28 13:20:00,
2013-01-28 08:25:00,34.7,29.5,30.38,East,90,0.0,0.0,81,0.00,,CLR,0.00,VWS V12.08,2013-01-28 13:25:00,
2013-01-28 08:30:00,34.9,29.6,30.38,East,90,0.0,0.0,81,0.00,,CLR,0.00,VWS V12.08,2013-01-28 13:30:00,
2013-01-28 08:35:00,35.2,30.0,30.37,East,90,0.0,0.0,81,0.00,,CLR,0.00,VWS V12.08,2013-01-28 13:35:00,
2013-01-28 08:40:00,35.8,30.5,30.38,East,90,0.0,0.0,81,0.00,,CLR,0.00,VWS V12.08,2013-01-28 13:40:00,
2013-01-28 08:45:00,36.0,30.7,30.38,East,90,0.0,0.0,81,0.00,,CLR,0.00,VWS V12.08,2013-01-28 13:45:00,
2013-01-28 08:50:00,36.3,31.1,30.38,East,90,0.0,0.0,81,0.00,,CLR,0.00,VWS V12.08,2013-01-28 13:50:00,
2013-01-28 08:55:00,36.7,31.4,30.38,ESE,112,0.0,0.0,81,0.00,,CLR,0.00,VWS V12.08,2013-01-28 13:55:00,
2013-01-28 09:00:00,36.9,31.3,30.38,ESE,112,0.0,0.0,80,0.00,,CLR,0.00,VWS V12.08,2013-01-28 14:00:00,
2013-01-28 09:05:00,37.4,31.8,30.38,East,90,0.0,0.0,80,0.00,,CLR,0.00,VWS V12.08,2013-01-28 14:05:00,
2013-01-28 09:10:00,37.6,32.0,30.38,East,90,0.0,0.0,80,0.00,,CLR,0.00,VWS V12.08,2013-01-28 14:10:00,
2013-01-28 09:15:00,38.1,32.2,30.37,East,90,0.0,0.0,79,0.00,,CLR,0.00,VWS V12.08,2013-01-28 14:15:00,
2013-01-28 09:20:00,38.8,32.6,30.37,East,90,0.0,0.0,78,0.00,,CLR,0.00,VWS V12.08,2013-01-28 14:20:00,
2013-01-28 09:25:00,39.0,32.4,30.37,ENE,68,0.0,0.0,77,0.00,,CLR,0.00,VWS V12.08,2013-01-28 14:25:00,
2013-01-28 09:30:00,39.9,33.0,30.37,ENE,68,0.0,0.0,76,0.00,,CLR,0.00,VWS V12.08,2013-01-28 14:30:00,
2013-01-28 09:35:00,40.8,33.2,30.37,East,90,0.0,0.0,74,0.00,,CLR,0.00,VWS V12.08,2013-01-28 14:35:00,
2013-01-28 09:40:00,40.8,33.2,30.37,East,90,0.0,0.0,74,0.00,,CLR,0.00,VWS V12.08,2013-01-28 14:40:00,
2013-01-28 09:45:00,40.8,33.2,30.36,East,90,0.0,0.0,74,0.00,,CLR,0.00,VWS V12.08,2013-01-28 14:45:00,
2013-01-28 09:50:00,41.7,32.0,30.37,WNW,292,0.0,0.0,68,0.00,,CLR,0.00,VWS V12.08,2013-01-28 14:50:00,
2013-01-28 09:55:00,41.7,32.0,30.36,North,0,0.0,0.0,68,0.00,,CLR,0.00,VWS V12.08,2013-01-28 14:55:00,
2013-01-28 10:00:00,41.7,32.0,30.37,NW,315,0.7,0.7,68,0.00,,CLR,0.00,VWS V12.08,2013-01-28 15:00:00,
2013-01-28 10:05:00,41.7,32.0,30.37,West,270,0.0,0.7,68,0.00,,CLR,0.00,VWS V12.08,2013-01-28 15:05:00,
2013-01-28 10:10:00,41.7,31.6,30.37,WNW,292,0.0,1.8,67,0.00,,CLR,0.00,VWS V12.08,2013-01-28 15:10:00,
2013-01-28 10:15:00,41.7,32.0,30.36,West,270,0.0,1.8,68,0.00,,CLR,0.00,VWS V12.08,2013-01-28 15:15:00,
2013-01-28 10:20:00,41.7,32.0,30.36,WSW,248,0.0,0.0,68,0.00,,CLR,0.00,VWS V12.08,2013-01-28 15:20:00,
2013-01-28 10:25:00,41.9,32.1,30.36,WSW,248,0.0,0.0,68,0.00,,CLR,0.00,VWS V12.08,2013-01-28 15:25:00,
2013-01-28 10:30:00,42.1,32.3,30.36,SSW,202,0.0,0.0,68,0.00,,CLR,0.00,VWS V12.08,2013-01-28 15:30:00,
2013-01-28 10:35:00,42.6,32.8,30.36,SW,225,0.0,0.0,68,0.00,,CLR,0.00,VWS V12.08,2013-01-28 15:35:00,
2013-01-28 10:40:00,43.0,32.8,30.36,NW,315,0.0,2.7,67,0.00,,CLR,0.00,VWS V12.08,2013-01-28 15:40:00,
2013-01-28 10:45:00,43.3,33.1,30.36,WNW,292,0.0,0.0,67,0.00,,CLR,0.00,VWS V12.08,2013-01-28 15:45:00,
2013-01-28 10:50:00,44.2,34.0,30.36,WNW,292,0.0,0.0,67,0.00,,CLR,0.00,VWS V12.08,2013-01-28 15:50:00,
2013-01-28 10:55:00,44.6,33.6,30.36,NW,315,0.0,1.3,65,0.00,,CLR,0.00,VWS V12.08,2013-01-28 15:55:00,
2013-01-28 11:00:00,44.8,33.4,30.36,NNW,338,0.0,0.0,64,0.00,,CLR,0.00,VWS V12.08,2013-01-28 16:00:00,
2013-01-28 11:05:00,44.8,33.4,30.35,WNW,292,0.0,0.0,64,0.00,,CLR,0.00,VWS V12.08,2013-01-28 16:05:00,
2013-01-28 11:10:00,45.1,33.7,30.35,West,270,0.0,0.0,64,0.00,,CLR,0.00,VWS V12.08,2013-01-28 16:10:00,
2013-01-28 11:15:00,45.3,33.9,30.35,West,270,0.0,0.0,64,0.00,,CLR,0.00,VWS V12.08,2013-01-28 16:15:00,
2013-01-28 11:20:00,45.3,33.9,30.35,WNW,292,0.0,0.0,64,0.00,,CLR,0.00,VWS V12.08,2013-01-28 16:20:00,
2013-01-28 11:25:00,45.5,34.0,30.35,WNW,292,0.0,0.0,64,0.00,,CLR,0.00,VWS V12.08,2013-01-28 16:25:00,
2013-01-28 11:30:00,45.7,34.2,30.35,West,270,0.0,0.0,64,0.00,,CLR,0.00,VWS V12.08,2013-01-28 16:30:00,
2013-01-28 11:35:00,46.0,34.6,30.35,NNE,22,0.0,0.0,64,0.00,,CLR,0.00,VWS V12.08,2013-01-28 16:35:00,
2013-01-28 11:40:00,46.2,34.3,30.35,NE,45,0.0,0.0,63,0.00,,CLR,0.00,VWS V12.08,2013-01-28 16:40:00,
2013-01-28 11:45:00,46.9,35.0,30.34,ENE,68,0.0,1.8,63,0.00,,CLR,0.00,VWS V12.08,2013-01-28 16:45:00,
2013-01-28 11:50:00,47.3,35.4,30.34,NE,45,0.0,1.8,63,0.00,,CLR,0.00,VWS V12.08,2013-01-28 16:50:00,
2013-01-28 11:55:00,47.7,35.3,30.33,NNE,22,0.0,1.8,62,0.00,,CLR,0.00,VWS V12.08,2013-01-28 16:55:00,
2013-01-28 12:00:00,47.8,35.5,30.33,ENE,68,1.1,1.1,62,0.00,,CLR,0.00,VWS V12.08,2013-01-28 17:00:00,
2013-01-28 12:05:00,48.0,35.2,30.33,NNW,338,0.0,1.1,61,0.00,,CLR,0.00,VWS V12.08,2013-01-28 17:05:00,
2013-01-28 12:10:00,48.2,35.4,30.32,NNE,22,0.0,1.1,61,0.00,,CLR,0.00,VWS V12.08,2013-01-28 17:10:00,
2013-01-28 12:15:00,48.4,35.6,30.32,ENE,68,0.0,1.6,61,0.00,,CLR,0.00,VWS V12.08,2013-01-28 17:15:00,
2013-01-28 12:20:00,48.4,35.6,30.31,East,90,0.0,0.0,61,0.00,,CLR,0.00,VWS V12.08,2013-01-28 17:20:00,
2013-01-28 12:25:00,48.7,35.9,30.31,ENE,68,0.0,0.0,61,0.00,,CLR,0.00,VWS V12.08,2013-01-28 17:25:00,
2013-01-28 12:30:00,49.1,35.8,30.31,WNW,292,0.0,0.0,60,0.00,,CLR,0.00,VWS V12.08,2013-01-28 17:30:00,
2013-01-28 12:35:00,49.1,35.8,30.31,ENE,68,0.0,0.0,60,0.00,,CLR,0.00,VWS V12.08,2013-01-28 17:35:00,
2013-01-28 12:40:00,49.1,36.2,30.30,ESE,112,0.0,0.0,61,0.00,,CLR,0.00,VWS V12.08,2013-01-28 17:40:00,
2013-01-28 12:45:00,49.3,36.4,30.29,East,90,0.0,1.6,61,0.00,,CLR,0.00,VWS V12.08,2013-01-28 17:45:00,
2013-01-28 12:50:00,49.6,36.8,30.29,East,90,0.0,1.6,61,0.00,,CLR,0.00,VWS V12.08,2013-01-28 17:50:00,
2013-01-28 12:55:00,50.2,36.8,30.28,SE,135,0.0,1.6,60,0.00,,CLR,0.00,VWS V12.08,2013-01-28 17:55:00,
2013-01-28 13:00:00,50.5,37.2,30.28,ENE,68,0.7,2.2,60,0.00,,CLR,0.00,VWS V12.08,2013-01-28 18:00:00,
2013-01-28 13:05:00,50.7,36.9,30.27,ENE,68,0.0,2.5,59,0.00,,CLR,0.00,VWS V12.08,2013-01-28 18:05:00,
2013-01-28 13:10:00,51.1,37.3,30.27,NNE,22,0.0,2.5,59,0.00,,CLR,0.00,VWS V12.08,2013-01-28 18:10:00,
2013-01-28 13:15:00,51.1,37.3,30.26,ENE,68,0.0,2.5,59,0.00,,CLR,0.00,VWS V12.08,2013-01-28 18:15:00,
2013-01-28 13:20:00,51.1,37.3,30.26,WNW,292,0.0,1.6,59,0.00,,CLR,0.00,VWS V12.08,2013-01-28 18:20:00,
2013-01-28 13:25:00,51.3,37.4,30.25,WNW,292,1.1,3.6,59,0.00,,CLR,0.00,VWS V12.08,2013-01-28 18:25:00,
2013-01-28 13:30:00,51.4,38.0,30.25,WNW,292,0.0,3.6,60,0.00,,CLR,0.00,VWS V12.08,2013-01-28 18:30:00,
2013-01-28 13:35:00,51.6,38.2,30.24,NNW,338,0.0,3.6,60,0.00,,CLR,0.00,VWS V12.08,2013-01-28 18:35:00,
2013-01-28 13:40:00,52.0,38.5,30.24,ESE,112,0.0,0.0,60,0.00,,CLR,0.00,VWS V12.08,2013-01-28 18:40:00,
2013-01-28 13:45:00,52.5,39.5,30.24,NW,315,0.0,0.0,61,0.00,,CLR,0.00,VWS V12.08,2013-01-28 18:45:00,
2013-01-28 13:50:00,53.1,39.6,30.24,WNW,292,0.0,5.8,60,0.00,,CLR,0.00,VWS V12.08,2013-01-28 18:50:00,
2013-01-28 13:55:00,53.4,39.5,30.23,WNW,292,0.0,5.8,59,0.00,,CLR,0.00,VWS V12.08,2013-01-28 18:55:00,
2013-01-28 14:00:00,53.8,39.4,30.22,NNW,338,0.0,0.9,58,0.00,,CLR,0.00,VWS V12.08,2013-01-28 19:00:00,
2013-01-28 14:05:00,53.8,39.4,30.22,WNW,292,4.7,4.7,58,0.00,,CLR,0.00,VWS V12.08,2013-01-28 19:05:00,
2013-01-28 14:10:00,54.0,40.0,30.22,NNE,22,0.0,4.7,59,0.00,,CLR,0.00,VWS V12.08,2013-01-28 19:10:00,
2013-01-28 14:15:00,54.0,40.0,30.21,NE,45,0.0,4.7,59,0.00,,CLR,0.00,VWS V12.08,2013-01-28 19:15:00,
2013-01-28 14:20:00,54.3,40.3,30.22,ENE,68,0.0,0.0,59,0.00,,CLR,0.00,VWS V12.08,2013-01-28 19:20:00,
2013-01-28 14:25:00,54.5,40.5,30.22,North,0,0.0,1.8,59,0.00,,CLR,0.00,VWS V12.08,2013-01-28 19:25:00,
2013-01-28 14:30:00,54.9,40.8,30.22,WNW,292,0.7,1.8,59,0.00,,CLR,0.00,VWS V12.08,2013-01-28 19:30:00,
2013-01-28 14:35:00,55.2,40.7,30.21,SW,225,1.1,3.4,58,0.00,,CLR,0.00,VWS V12.08,2013-01-28 19:35:00,
2013-01-28 14:40:00,55.2,41.2,30.21,SW,225,0.0,0.0,59,0.00,,CLR,0.00,VWS V12.08,2013-01-28 19:40:00,
2013-01-28 14:45:00,55.6,41.5,30.21,NE,45,0.0,1.3,59,0.00,,CLR,0.00,VWS V12.08,2013-01-28 19:45:00,
2013-01-28 14:50:00,55.9,41.8,30.21,WNW,292,0.0,1.3,59,0.00,,CLR,0.00,VWS V12.08,2013-01-28 19:50:00,
2013-01-28 14:55:00,56.1,42.0,30.21,WNW,292,0.0,3.4,59,0.00,,CLR,0.00,VWS V12.08,2013-01-28 19:55:00,
2013-01-28 15:00:00,56.3,41.7,30.21,NNW,338,0.0,0.0,58,0.00,,CLR,0.00,VWS V12.08,2013-01-28 20:00:00,
2013-01-28 15:05:00,56.3,41.7,30.20,NNE,22,0.0,0.0,58,0.00,,CLR,0.00,VWS V12.08,2013-01-28 20:05:00,
2013-01-28 15:10:00,56.5,42.3,30.21,East,90,0.0,3.1,59,0.00,,CLR,0.00,VWS V12.08,2013-01-28 20:10:00,
2013-01-28 15:15:00,56.5,42.3,30.21,ESE,112,0.0,3.1,59,0.00,,CLR,0.00,VWS V12.08,2013-01-28 20:15:00,
2013-01-28 15:20:00,56.5,42.3,30.20,SE,135,0.0,0.0,59,0.00,,CLR,0.00,VWS V12.08,2013-01-28 20:20:00,
2013-01-28 15:25:00,56.5,42.8,30.20,SE,135,0.0,0.0,60,0.00,,CLR,0.00,VWS V12.08,2013-01-28 20:25:00,
2013-01-28 15:30:00,56.5,42.8,30.20,ENE,68,0.0,0.9,60,0.00,,CLR,0.00,VWS V12.08,2013-01-28 20:30:00,
2013-01-28 15:35:00,56.5,42.8,30.20,ENE,68,0.0,0.9,60,0.00,,CLR,0.00,VWS V12.08,2013-01-28 20:35:00,
2013-01-28 15:40:00,56.8,43.5,30.20,ENE,68,0.0,0.0,61,0.00,,CLR,0.00,VWS V12.08,2013-01-28 20:40:00,
2013-01-28 15:45:00,56.8,43.5,30.19,NW,315,0.0,0.9,61,0.00,,CLR,0.00,VWS V12.08,2013-01-28 20:45:00,
2013-01-28 15:50:00,56.8,43.5,30.19,NW,315,0.0,0.9,61,0.00,,CLR,0.00,VWS V12.08,2013-01-28 20:50:00,
2013-01-28 15:55:00,56.8,43.5,30.19,West,270,0.0,0.9,61,0.00,,CLR,0.00,VWS V12.08,2013-01-28 20:55:00,
2013-01-28 16:01:00,56.5,43.2,30.19,West,270,0.0,0.0,61,0.00,,CLR,0.00,VWS V12.08,2013-01-28 21:01:00,
2013-01-28 16:06:00,56.5,43.2,30.19,WNW,292,0.0,0.0,61,0.00,,CLR,0.00,VWS V12.08,2013-01-28 21:06:00,
2013-01-28 16:11:00,56.7,43.4,30.19,NNE,22,0.0,0.0,61,0.00,,CLR,0.00,VWS V12.08,2013-01-28 21:11:00,
2013-01-28 16:16:00,56.5,43.2,30.19,NNE,22,0.0,0.0,61,0.00,,CLR,0.00,VWS V12.08,2013-01-28 21:16:00,
2013-01-28 16:21:00,56.3,43.0,30.19,North,0,0.0,0.0,61,0.00,,CLR,0.00,VWS V12.08,2013-01-28 21:21:00,
2013-01-28 16:26:00,56.1,43.3,30.19,North,0,0.0,0.0,62,0.00,,CLR,0.00,VWS V12.08,2013-01-28 21:26:00,
2013-01-28 16:31:00,56.1,43.3,30.19,North,0,0.0,0.0,62,0.00,,CLR,0.00,VWS V12.08,2013-01-28 21:31:00,
2013-01-28 16:36:00,56.3,43.0,30.19,NW,315,0.0,0.0,61,0.00,,CLR,0.00,VWS V12.08,2013-01-28 21:36:00,
2013-01-28 16:41:00,56.1,42.9,30.20,WNW,292,0.0,0.0,61,0.00,,CLR,0.00,VWS V12.08,2013-01-28 21:41:00,
2013-01-28 16:46:00,55.9,42.7,30.19,WNW,292,0.0,0.0,61,0.00,,CLR,0.00,VWS V12.08,2013-01-28 21:46:00,
2013-01-28 16:51:00,55.9,42.7,30.19,WNW,292,0.0,0.0,61,0.00,,CLR,0.00,VWS V12.08,2013-01-28 21:51:00,
2013-01-28 16:56:00,55.2,42.4,30.19,NW,315,0.0,0.0,62,0.00,,CLR,0.00,VWS V12.08,2013-01-28 21:56:00,
2013-01-28 17:01:00,55.0,42.3,30.19,NW,315,0.0,0.0,62,0.00,,CLR,0.00,VWS V12.08,2013-01-28 22:01:00,
2013-01-28 17:06:00,54.9,42.1,30.19,NW,315,0.0,0.0,62,0.00,,CLR,0.00,VWS V12.08,2013-01-28 22:06:00,
2013-01-28 17:11:00,54.5,42.2,30.19,WNW,292,0.0,0.0,63,0.00,,CLR,0.00,VWS V12.08,2013-01-28 22:11:00,
2013-01-28 17:16:00,54.3,42.0,30.19,WNW,292,0.0,0.0,63,0.00,,CLR,0.00,VWS V12.08,2013-01-28 22:16:00,
2013-01-28 17:21:00,54.1,41.8,30.19,WNW,292,0.0,0.0,63,0.00,,CLR,0.00,VWS V12.08,2013-01-28 22:21:00,
2013-01-28 17:26:00,53.4,41.6,30.20,WNW,292,0.0,0.0,64,0.00,,CLR,0.00,VWS V12.08,2013-01-28 22:26:00,
2013-01-28 17:31:00,53.2,41.4,30.20,WNW,292,0.0,0.0,64,0.00,,CLR,0.00,VWS V12.08,2013-01-28 22:31:00,
2013-01-28 17:36:00,52.7,40.9,30.20,WNW,292,0.0,0.0,64,0.00,,CLR,0.00,VWS V12.08,2013-01-28 22:36:00,
2013-01-28 17:41:00,52.2,40.8,30.20,WNW,292,0.0,0.0,65,0.00,,CLR,0.00,VWS V12.08,2013-01-28 22:41:00,
2013-01-28 17:46:00,51.6,40.7,30.19,South,180,0.0,0.0,66,0.00,,CLR,0.00,VWS V12.08,2013-01-28 22:46:00,
2013-01-28 17:51:00,51.4,40.5,30.19,South,180,0.0,0.0,66,0.00,,CLR,0.00,VWS V12.08,2013-01-28 22:51:00,
2013-01-28 17:56:00,50.9,40.3,30.20,South,180,0.0,0.0,67,0.00,,CLR,0.00,VWS V12.08,2013-01-28 22:56:00,
2013-01-28 18:01:00,50.5,40.0,30.20,South,180,0.0,0.0,67,0.00,,CLR,0.00,VWS V12.08,2013-01-28 23:01:00,
2013-01-28 18:06:00,50.2,40.0,30.20,South,180,0.0,0.0,68,0.00,,CLR,0.00,VWS V12.08,2013-01-28 23:06:00,
2013-01-28 18:11:00,49.8,39.7,30.20,South,180,0.0,0.0,68,0.00,,CLR,0.00,VWS V12.08,2013-01-28 23:11:00,
2013-01-28 18:16:00,49.6,39.5,30.20,South,180,0.0,0.0,68,0.00,,CLR,0.00,VWS V12.08,2013-01-28 23:16:00,
2013-01-28 18:21:00,49.3,39.5,30.20,South,180,0.0,0.0,69,0.00,,CLR,0.00,VWS V12.08,2013-01-28 23:21:00,
2013-01-28 18:26:00,48.9,39.6,30.20,South,180,0.0,0.0,70,0.00,,CLR,0.00,VWS V12.08,2013-01-28 23:26:00,
2013-01-28 18:31:00,48.7,39.4,30.20,South,180,0.0,0.0,70,0.00,,CLR,0.00,VWS V12.08,2013-01-28 23:31:00,
2013-01-28 18:36:00,48.6,39.2,30.21,SE,135,0.0,0.0,70,0.00,,CLR,0.00,VWS V12.08,2013-01-28 23:36:00,
2013-01-28 18:41:00,48.4,39.4,30.21,SE,135,0.0,0.0,71,0.00,,CLR,0.00,VWS V12.08,2013-01-28 23:41:00,
2013-01-28 18:46:00,48.4,39.4,30.21,SE,135,0.0,0.0,71,0.00,,CLR,0.00,VWS V12.08,2013-01-28 23:46:00,
2013-01-28 18:51:00,47.8,39.3,30.22,SE,135,0.0,0.0,72,0.00,,CLR,0.00,VWS V12.08,2013-01-28 23:51:00,
2013-01-28 18:56:00,47.8,39.3,30.21,SE,135,0.0,0.0,72,0.00,,CLR,0.00,VWS V12.08,2013-01-28 23:56:00,
2013-01-28 19:01:00,47.5,38.9,30.21,SE,135,0.0,0.0,72,0.00,,CLR,0.00,VWS V12.08,2013-01-29 00:01:00,
2013-01-28 19:06:00,47.5,38.9,30.21,SE,135,0.0,0.0,72,0.00,,CLR,0.00,VWS V12.08,2013-01-29 00:06:00,
2013-01-28 19:11:00,47.3,39.1,30.21,SE,135,0.0,0.0,73,0.00,,CLR,0.00,VWS V12.08,2013-01-29 00:11:00,
2013-01-28 19:16:00,47.1,39.3,30.22,SE,135,0.0,0.0,74,0.00,,CLR,0.00,VWS V12.08,2013-01-29 00:16:00,
2013-01-28 19:21:00,47.1,39.3,30.21,SE,135,0.0,0.0,74,0.00,,CLR,0.00,VWS V12.08,2013-01-29 00:21:00,
2013-01-28 19:26:00,46.8,38.9,30.22,SE,135,0.0,0.0,74,0.00,,CLR,0.00,VWS V12.08,2013-01-29 00:26:00,
2013-01-28 19:31:00,46.8,38.9,30.21,SE,135,0.0,0.0,74,0.00,,CLR,0.00,VWS V12.08,2013-01-29 00:31:00,
2013-01-28 19:36:00,46.6,38.8,30.20,SE,135,0.0,0.0,74,0.00,,CLR,0.00,VWS V12.08,2013-01-29 00:36:00,
2013-01-28 19:41:00,46.6,39.1,30.21,SE,135,0.0,0.0,75,0.00,,CLR,0.00,VWS V12.08,2013-01-29 00:41:00,
2013-01-28 19:46:00,46.4,38.9,30.20,SE,135,0.0,0.0,75,0.00,,CLR,0.00,VWS V12.08,2013-01-29 00:46:00,
2013-01-28 19:51:00,46.6,39.4,30.21,SE,135,0.0,0.0,76,0.00,,CLR,0.00,VWS V12.08,2013-01-29 00:51:00,
2013-01-28 19:56:00,46.6,39.4,30.21,East,90,0.0,0.0,76,0.00,,CLR,0.00,VWS V12.08,2013-01-29 00:56:00,
2013-01-28 20:01:00,46.6,39.4,30.20,ENE,68,0.0,0.0,76,0.00,,CLR,0.00,VWS V12.08,2013-01-29 01:01:00,
2013-01-28 20:06:00,46.6,39.4,30.20,ENE,68,0.0,0.0,76,0.00,,CLR,0.00,VWS V12.08,2013-01-29 01:06:00,
2013-01-28 20:11:00,46.2,39.4,30.21,ENE,68,0.0,0.0,77,0.00,,CLR,0.00,VWS V12.08,2013-01-29 01:11:00,
2013-01-28 20:16:00,46.2,39.4,30.22,ENE,68,0.0,0.0,77,0.00,,CLR,0.00,VWS V12.08,2013-01-29 01:16:00,
2013-01-28 20:21:00,45.9,38.7,30.22,ENE,68,0.0,0.0,76,0.00,,CLR,0.00,VWS V12.08,2013-01-29 01:21:00,
2013-01-28 20:26:00,45.7,38.9,30.22,ENE,68,0.0,0.0,77,0.00,,CLR,0.00,VWS V12.08,2013-01-29 01:26:00,
2013-01-28 20:31:00,45.7,38.9,30.21,ENE,68,0.0,0.0,77,0.00,,CLR,0.00,VWS V12.08,2013-01-29 01:31:00,
2013-01-28 20:36:00,45.7,38.9,30.21,ENE,68,0.0,0.0,77,0.00,,CLR,0.00,VWS V12.08,2013-01-29 01:36:00,
2013-01-28 20:41:00,45.7,39.2,30.21,ENE,68,0.0,0.0,78,0.00,,CLR,0.00,VWS V12.08,2013-01-29 01:41:00,
2013-01-28 20:46:00,45.7,39.2,30.20,ENE,68,0.0,0.0,78,0.00,,CLR,0.00,VWS V12.08,2013-01-29 01:46:00,
2013-01-28 20:51:00,45.7,39.2,30.20,NNE,22,0.0,0.0,78,0.00,,CLR,0.00,VWS V12.08,2013-01-29 01:51:00,
2013-01-28 20:56:00,45.5,39.0,30.21,North,0,0.0,0.0,78,0.00,,CLR,0.00,VWS V12.08,2013-01-29 01:56:00,
2013-01-28 21:01:00,45.3,38.9,30.21,East,90,0.0,0.0,78,0.00,,CLR,0.00,VWS V12.08,2013-01-29 02:01:00,
2013-01-28 21:06:00,45.1,38.7,30.21,East,90,0.0,0.0,78,0.00,,CLR,0.00,VWS V12.08,2013-01-29 02:06:00,
2013-01-28 21:11:00,45.0,38.8,30.21,ENE,68,0.0,0.0,79,0.00,,CLR,0.00,VWS V12.08,2013-01-29 02:11:00,
2013-01-28 21:16:00,44.6,38.2,30.21,ENE,68,0.0,0.0,78,0.00,,CLR,0.00,VWS V12.08,2013-01-29 02:16:00,
2013-01-28 21:21:00,44.4,38.3,30.21,ENE,68,0.0,0.0,79,0.00,,CLR,0.00,VWS V12.08,2013-01-29 02:21:00,
2013-01-28 21:26:00,44.4,38.3,30.21,East,90,0.0,0.0,79,0.00,,CLR,0.00,VWS V12.08,2013-01-29 02:26:00,
2013-01-28 21:31:00,44.4,38.3,30.21,East,90,0.0,0.0,79,0.00,,CLR,0.00,VWS V12.08,2013-01-29 02:31:00,
2013-01-28 21:36:00,44.4,38.3,30.21,East,90,0.0,0.0,79,0.00,,CLR,0.00,VWS V12.08,2013-01-29 02:36:00,
2013-01-28 21:41:00,44.2,38.5,30.21,North,0,0.0,0.0,80,0.00,,CLR,0.00,VWS V12.08,2013-01-29 02:41:00,
2013-01-28 21:46:00,44.2,38.5,30.21,North,0,0.0,0.0,80,0.00,,CLR,0.00,VWS V12.08,2013-01-29 02:46:00,
2013-01-28 21:51:00,43.9,38.1,30.20,East,90,0.0,0.0,80,0.00,,CLR,0.00,VWS V12.08,2013-01-29 02:51:00,
2013-01-28 21:56:00,44.1,38.3,30.20,East,90,0.0,0.0,80,0.00,,CLR,0.00,VWS V12.08,2013-01-29 02:56:00,
2013-01-28 22:01:00,43.9,38.1,30.21,NNW,338,0.0,0.0,80,0.00,,CLR,0.00,VWS V12.08,2013-01-29 03:01:00,
2013-01-28 22:06:00,43.5,37.8,30.21,NW,315,0.0,0.0,80,0.00,,CLR,0.00,VWS V12.08,2013-01-29 03:06:00,
2013-01-28 22:11:00,43.5,37.8,30.21,NW,315,0.0,0.0,80,0.00,,CLR,0.00,VWS V12.08,2013-01-29 03:11:00,
2013-01-28 22:16:00,43.5,37.8,30.21,NW,315,0.0,0.0,80,0.00,,CLR,0.00,VWS V12.08,2013-01-29 03:16:00,
2013-01-28 22:21:00,43.3,37.6,30.21,NW,315,0.0,0.0,80,0.00,,CLR,0.00,VWS V12.08,2013-01-29 03:21:00,
2013-01-28 22:26:00,43.3,37.6,30.21,NNW,338,0.0,0.0,80,0.00,,CLR,0.00,VWS V12.08,2013-01-29 03:26:00,
2013-01-28 22:31:00,43.3,37.6,30.20,NNE,22,0.0,0.0,80,0.00,,CLR,0.00,VWS V12.08,2013-01-29 03:31:00,
2013-01-28 22:36:00,43.0,37.6,30.20,ENE,68,0.0,0.0,81,0.00,,CLR,0.00,VWS V12.08,2013-01-29 03:36:00,
2013-01-28 22:41:00,42.8,37.4,30.20,ENE,68,0.0,0.0,81,0.00,,CLR,0.00,VWS V12.08,2013-01-29 03:41:00,
2013-01-28 22:46:00,42.6,37.2,30.20,ENE,68,0.0,0.0,81,0.00,,CLR,0.00,VWS V12.08,2013-01-29 03:46:00,
2013-01-28 22:51:00,42.6,37.2,30.19,ENE,68,0.0,0.0,81,0.00,,CLR,0.00,VWS V12.08,2013-01-29 03:51:00,
2013-01-28 22:56:00,42.4,37.0,30.20,ENE,68,0.0,0.0,81,0.00,,CLR,0.00,VWS V12.08,2013-01-29 03:56:00,
2013-01-28 23:01:00,42.4,37.0,30.20,ENE,68,0.0,0.0,81,0.00,,CLR,0.00,VWS V12.08,2013-01-29 04:01:00,
2013-01-28 23:06:00,42.1,36.7,30.20,ENE,68,0.0,0.0,81,0.00,,CLR,0.00,VWS V12.08,2013-01-29 04:06:00,
2013-01-28 23:11:00,42.1,36.7,30.20,ENE,68,0.0,0.0,81,0.00,,CLR,0.00,VWS V12.08,2013-01-29 04:11:00,
2013-01-28 23:16:00,42.1,36.7,30.20,ENE,68,0.0,0.0,81,0.00,,CLR,0.00,VWS V12.08,2013-01-29 04:16:00,
2013-01-28 23:21:00,41.7,36.3,30.19,East,90,0.0,0.0,81,0.00,,CLR,0.00,VWS V12.08,2013-01-29 04:21:00,
2013-01-28 23:26:00,41.7,36.3,30.20,East,90,0.0,0.0,81,0.00,,CLR,0.00,VWS V12.08,2013-01-29 04:26:00,
2013-01-28 23:31:00,41.7,36.6,30.20,East,90,0.0,0.0,82,0.00,,CLR,0.00,VWS V12.08,2013-01-29 04:31:00,
2013-01-28 23:36:00,41.7,36.6,30.20,East,90,0.0,0.0,82,0.00,,CLR,0.00,VWS V12.08,2013-01-29 04:36:00,
2013-01-28 23:41:00,41.7,36.6,30.20,East,90,0.0,0.0,82,0.00,,CLR,0.00,VWS V12.08,2013-01-29 04:41:00,
2013-01-28 23:46:00,41.7,36.6,30.19,East,90,0.0,0.0,82,0.00,,CLR,0.00,VWS V12.08,2013-01-29 04:46:00,
2013-01-28 23:51:00,41.2,36.1,30.19,East,90,0.0,0.0,82,0.00,,CLR,0.00,VWS V12.08,2013-01-29 04:51:00,
2013-01-28 23:56:00,41.2,36.1,30.19,East,90,0.0,0.0,82,0.00,,CLR,0.00,VWS V12.08,2013-01-29 04:56:00,